Austin Reinauer — WCX8055 — position and weather

sailwx.info

Track history (hours):
 
Tides and Currents Weather Stations Pressure Air Temp Water Temp Dewpoint Dewpoint Depression Visibility Wind Speed Wind Dir Waves Ship Positions

Austin Reinauer

More information available from US FCC via Universal Licensing System and Coast Guard Vessel Documentation Center.

Last reported at 2014-Jul-31 19:33 UTC. Time now 2014-Jul-31 21:42 UTC.
Position N 41°44' W 070°37'.

Length 33 m; draft 6.7 m.

Type: Ship (hazmat cat B). MMSI: 366739920.

Date/timePositionNaut miles runAvg speedWind from/ knotsBaromVisibWave heightAir tempDewpointWater temp
2014-Jul-31 19:33N 41°44' W 070°37'8 7.9
2014-Jul-31 18:33N 41°37' W 070°42'9 9.2
2014-Jul-31 17:33N 41°30' W 070°50'10 9.8
2014-Jul-31 16:33N 41°26' W 071°02'9 9.1
2014-Jul-31 15:33N 41°23' W 071°14'8 8.0
2014-Jul-31 14:33N 41°28' W 071°22'10 9.0
2014-Jul-31 13:29N 41°37' W 071°18'8 9.0
2014-Jul-31 12:33N 41°45' W 071°22'2 2.4
2014-Jul-31 11:33N 41°47' W 071°22'0 0.0
2014-Jul-31 10:33N 41°47' W 071°22'0 0.0
2014-Jul-31 09:33N 41°47' W 071°22'0 0.0
2014-Jul-31 08:33N 41°47' W 071°22'0 0.0
2014-Jul-31 07:33N 41°47' W 071°22'0 0.0
2014-Jul-31 06:33N 41°47' W 071°22'0 0.0
2014-Jul-31 05:33N 41°47' W 071°22'0 0.0
2014-Jul-31 04:33N 41°47' W 071°22'0 0.0
2014-Jul-31 03:33N 41°47' W 071°22'0 0.0
2014-Jul-31 02:32N 41°47' W 071°22'0 0.0
2014-Jul-31 01:32N 41°47' W 071°22'0 0.0
2014-Jul-31 00:29N 41°47' W 071°22'0 0.0
2014-Jul-30 22:33N 41°47' W 071°22'0 0.0
2014-Jul-30 21:27N 41°47' W 071°22'0 0.0
2014-Jul-30 20:32N 41°47' W 071°22'0 0.0
2014-Jul-30 19:29N 41°47' W 071°22'0 0.0
2014-Jul-30 18:29N 41°47' W 071°22'1 1.4
2014-Jul-30 17:33N 41°46' W 071°23'10 7.7
2014-Jul-30 16:16N 41°36' W 071°18'6 8.5
2014-Jul-30 15:33N 41°31' W 071°21'8 8.5
2014-Jul-30 14:33N 41°23' W 071°25'9 8.7
2014-Jul-30 13:33N 41°14' W 071°28'8 7.7
2014-Jul-30 12:33N 41°07' W 071°32'8 7.6
2014-Jul-30 11:33N 41°04' W 071°41'8 7.5
2014-Jul-30 10:33N 41°01' W 071°50'8 7.9
2014-Jul-30 09:33N 40°57' W 071°59'8 8.2
2014-Jul-30 08:33N 40°54' W 072°09'8 8.4
2014-Jul-30 07:33N 40°50' W 072°19'8 8.4
2014-Jul-30 06:33N 40°47' W 072°29'9 8.5
2014-Jul-30 05:33N 40°44' W 072°40'9 8.7
2014-Jul-30 04:33N 40°40' W 072°51'52 8.5
2014-Jul-29 22:23N 40°31' W 073°58'7 8.5
2014-Jul-29 21:33N 40°37' W 074°03'7 6.7
2014-Jul-29 20:33N 40°38' W 074°12'1 0.0
2014-Jul-28 03:11N 40°38' W 074°12'0 0.2
2014-Jul-28 02:23N 40°38' W 074°12'5 6.0
2014-Jul-28 01:34N 40°39' W 074°06'1 0.6
2014-Jul-28 00:31N 40°39' W 074°05'0 0.0
2014-Jul-27 23:31N 40°39' W 074°05'0 0.0
2014-Jul-27 22:31N 40°39' W 074°05'0 0.0
2014-Jul-27 21:31N 40°39' W 074°05'0 0.0
2014-Jul-27 20:31N 40°39' W 074°05'0 0.0
2014-Jul-27 19:31N 40°39' W 074°05'5 5.1
2014-Jul-27 18:30N 40°38' W 074°12'0 0.0
2014-Jul-27 17:33N 40°38' W 074°12'0 0.0
2014-Jul-27 16:30N 40°38' W 074°12'5 5.4
2014-Jul-27 15:34N 40°39' W 074°05'2 2.0
2014-Jul-27 14:32N 40°38' W 074°08'0 0.0
2014-Jul-27 13:26N 40°38' W 074°08'0 0.0
2014-Jul-27 12:32N 40°38' W 074°08'1 1.0
2014-Jul-27 11:31N 40°39' W 074°07'0 0.0
2014-Jul-27 10:31N 40°39' W 074°07'1 1.2
2014-Jul-27 09:33N 40°39' W 074°05'0 0.0
2014-Jul-27 08:33N 40°39' W 074°05'0 0.0
2014-Jul-27 07:33N 40°39' W 074°05'2 1.8
2014-Jul-27 06:32N 40°39' W 074°03'0 0.0
2014-Jul-27 05:29N 40°39' W 074°03'0 0.0
2014-Jul-27 04:32N 40°39' W 074°03'0 0.2
2014-Jul-27 03:32N 40°39' W 074°03'0 0.1
2014-Jul-27 02:32N 40°39' W 074°03'3 3.4
2014-Jul-27 01:33N 40°42' W 074°00'6 6.1
2014-Jul-27 00:32N 40°47' W 073°55'7 7.0
2014-Jul-26 23:32N 40°50' W 073°47'9 9.3
2014-Jul-26 22:33N 40°55' W 073°37'10 9.8
2014-Jul-26 21:33N 40°60' W 073°26'9 9.5
2014-Jul-26 20:33N 41°03' W 073°14'9 9.3
2014-Jul-26 19:33N 41°07' W 073°03'9 8.8
2014-Jul-26 18:33N 41°13' W 072°54'5 4.4
2014-Jul-26 17:29N 41°18' W 072°55'0 0.0
2014-Jul-26 16:32N 41°18' W 072°55'0 0.0
2014-Jul-26 15:32N 41°18' W 072°55'0 0.0
2014-Jul-26 14:32N 41°18' W 072°55'0 0.0
2014-Jul-26 13:32N 41°18' W 072°55'0 0.0
2014-Jul-26 12:29N 41°18' W 072°55'0 0.0
2014-Jul-26 11:29N 41°18' W 072°55'0 0.0
2014-Jul-26 10:32N 41°18' W 072°55'0 0.0
2014-Jul-26 09:32N 41°18' W 072°55'0 0.0
2014-Jul-26 08:32N 41°18' W 072°55'0 0.0
2014-Jul-26 07:32N 41°18' W 072°55'0 0.0
2014-Jul-26 06:32N 41°18' W 072°55'0 0.0
2014-Jul-26 05:31N 41°18' W 072°55'0 0.0
2014-Jul-26 04:31N 41°18' W 072°55'0 0.0
2014-Jul-26 03:31N 41°18' W 072°55'3 3.4
2014-Jul-26 02:33N 41°15' W 072°55'7 6.8
2014-Jul-26 01:33N 41°09' W 073°00'8 8.0
2014-Jul-26 00:34N 41°05' W 073°09'9 8.4
2014-Jul-25 23:31N 41°02' W 073°20'9 8.8
2014-Jul-25 22:32N 40°58' W 073°30'9 8.7
2014-Jul-25 21:30N 40°54' W 073°41'9 8.0
2014-Jul-25 20:25N 40°48' W 073°49'6 6.7
2014-Jul-25 19:33N 40°46' W 073°57'5 4.9
2014-Jul-25 18:33N 40°42' W 074°00'6 5.7
2014-Jul-25 17:34N 40°37' W 074°03'6 6.3
2014-Jul-25 16:34N 40°31' W 073°59'6 6.2
2014-Jul-25 15:33N 40°27' W 073°54'8 8.1
2014-Jul-25 14:33N 40°19' W 073°55'79 3.7
2014-Jul-24 17:33N 39°46' W 075°29'8 8.3
2014-Jul-24 16:33N 39°51' W 075°20'65 1.3
2014-Jul-22 15:33N 38°48' W 074°58'11 9.2
2014-Jul-22 14:19N 38°55' W 074°46'9 9.8
2014-Jul-22 13:25N 39°01' W 074°38'910.1
2014-Jul-22 12:33N 39°08' W 074°30'1010.3
2014-Jul-22 11:33N 39°16' W 074°22'1010.3
2014-Jul-22 10:33N 39°24' W 074°14'1010.2
2014-Jul-22 09:33N 39°32' W 074°06'1010.4
2014-Jul-22 08:33N 39°42' W 074°01'1010.3
2014-Jul-22 07:33N 39°52' W 073°58'1010.4
2014-Jul-22 06:34N 40°02' W 073°58'1110.5
2014-Jul-22 05:34N 40°12' W 073°56'1010.4
2014-Jul-22 04:34N 40°23' W 073°54'9 9.2
2014-Jul-22 03:32N 40°31' W 073°60'9 9.4
2014-Jul-22 02:34N 40°40' W 074°02'4 3.3
2014-Jul-22 01:30N 40°39' W 074°07'4 4.1
2014-Jul-22 00:33N 40°38' W 074°12'0 0.0
2014-Jul-21 23:33N 40°38' W 074°12'0 0.0
2014-Jul-21 22:34N 40°38' W 074°12'0 0.0
2014-Jul-21 21:34N 40°38' W 074°12'4 4.4
2014-Jul-21 20:34N 40°39' W 074°06'2 9.2
2014-Jul-21 20:18N 40°40' W 074°03'4 5.0
2014-Jul-21 19:34N 40°42' W 073°60'  
Track history (hours):
 
Tides and Currents Weather Stations Pressure Air Temp Water Temp Dewpoint Dewpoint Depression Visibility Wind Speed Wind Dir Waves Ship Positions

Austin Reinauer

More information available from US FCC via Universal Licensing System and Coast Guard Vessel Documentation Center.

Last reported at 2014-Jul-31 19:33 UTC. Time now 2014-Jul-31 21:42 UTC.
Position N 41°44' W 070°37'.

Length 33 m; draft 6.7 m.

Type: Ship (hazmat cat B). MMSI: 366739920.

Date/timePositionNaut miles runAvg speedWind from/ knotsBaromVisibWave heightAir tempDewpointWater temp
2014-Jul-31 19:33N 41°44' W 070°37'8 7.9
2014-Jul-31 18:33N 41°37' W 070°42'9 9.2
2014-Jul-31 17:33N 41°30' W 070°50'10 9.8
2014-Jul-31 16:33N 41°26' W 071°02'9 9.1
2014-Jul-31 15:33N 41°23' W 071°14'8 8.0
2014-Jul-31 14:33N 41°28' W 071°22'10 9.0
2014-Jul-31 13:29N 41°37' W 071°18'8 9.0
2014-Jul-31 12:33N 41°45' W 071°22'2 2.4
2014-Jul-31 11:33N 41°47' W 071°22'0 0.0
2014-Jul-31 10:33N 41°47' W 071°22'0 0.0
2014-Jul-31 09:33N 41°47' W 071°22'0 0.0
2014-Jul-31 08:33N 41°47' W 071°22'0 0.0
2014-Jul-31 07:33N 41°47' W 071°22'0 0.0
2014-Jul-31 06:33N 41°47' W 071°22'0 0.0
2014-Jul-31 05:33N 41°47' W 071°22'0 0.0
2014-Jul-31 04:33N 41°47' W 071°22'0 0.0
2014-Jul-31 03:33N 41°47' W 071°22'0 0.0
2014-Jul-31 02:32N 41°47' W 071°22'0 0.0
2014-Jul-31 01:32N 41°47' W 071°22'0 0.0
2014-Jul-31 00:29N 41°47' W 071°22'0 0.0
2014-Jul-30 22:33N 41°47' W 071°22'0 0.0
2014-Jul-30 21:27N 41°47' W 071°22'0 0.0
2014-Jul-30 20:32N 41°47' W 071°22'0 0.0
2014-Jul-30 19:29N 41°47' W 071°22'0 0.0
2014-Jul-30 18:29N 41°47' W 071°22'1 1.4
2014-Jul-30 17:33N 41°46' W 071°23'10 7.7
2014-Jul-30 16:16N 41°36' W 071°18'6 8.5
2014-Jul-30 15:33N 41°31' W 071°21'8 8.5
2014-Jul-30 14:33N 41°23' W 071°25'9 8.7
2014-Jul-30 13:33N 41°14' W 071°28'8 7.7
2014-Jul-30 12:33N 41°07' W 071°32'8 7.6
2014-Jul-30 11:33N 41°04' W 071°41'8 7.5
2014-Jul-30 10:33N 41°01' W 071°50'8 7.9
2014-Jul-30 09:33N 40°57' W 071°59'8 8.2
2014-Jul-30 08:33N 40°54' W 072°09'8 8.4
2014-Jul-30 07:33N 40°50' W 072°19'8 8.4
2014-Jul-30 06:33N 40°47' W 072°29'9 8.5
2014-Jul-30 05:33N 40°44' W 072°40'9 8.7
2014-Jul-30 04:33N 40°40' W 072°51'52 8.5
2014-Jul-29 22:23N 40°31' W 073°58'7 8.5
2014-Jul-29 21:33N 40°37' W 074°03'7 6.7
2014-Jul-29 20:33N 40°38' W 074°12'1 0.0
2014-Jul-28 03:11N 40°38' W 074°12'0 0.2
2014-Jul-28 02:23N 40°38' W 074°12'5 6.0
2014-Jul-28 01:34N 40°39' W 074°06'1 0.6
2014-Jul-28 00:31N 40°39' W 074°05'0 0.0
2014-Jul-27 23:31N 40°39' W 074°05'0 0.0
2014-Jul-27 22:31N 40°39' W 074°05'0 0.0
2014-Jul-27 21:31N 40°39' W 074°05'0 0.0
2014-Jul-27 20:31N 40°39' W 074°05'0 0.0
2014-Jul-27 19:31N 40°39' W 074°05'5 5.1
2014-Jul-27 18:30N 40°38' W 074°12'0 0.0
2014-Jul-27 17:33N 40°38' W 074°12'0 0.0
2014-Jul-27 16:30N 40°38' W 074°12'5 5.4
2014-Jul-27 15:34N 40°39' W 074°05'2 2.0
2014-Jul-27 14:32N 40°38' W 074°08'0 0.0
2014-Jul-27 13:26N 40°38' W 074°08'0 0.0
2014-Jul-27 12:32N 40°38' W 074°08'1 1.0
2014-Jul-27 11:31N 40°39' W 074°07'0 0.0
2014-Jul-27 10:31N 40°39' W 074°07'1 1.2
2014-Jul-27 09:33N 40°39' W 074°05'0 0.0
2014-Jul-27 08:33N 40°39' W 074°05'0 0.0
2014-Jul-27 07:33N 40°39' W 074°05'2 1.8
2014-Jul-27 06:32N 40°39' W 074°03'0 0.0
2014-Jul-27 05:29N 40°39' W 074°03'0 0.0
2014-Jul-27 04:32N 40°39' W 074°03'0 0.2
2014-Jul-27 03:32N 40°39' W 074°03'0 0.1
2014-Jul-27 02:32N 40°39' W 074°03'3 3.4
2014-Jul-27 01:33N 40°42' W 074°00'6 6.1
2014-Jul-27 00:32N 40°47' W 073°55'7 7.0
2014-Jul-26 23:32N 40°50' W 073°47'9 9.3
2014-Jul-26 22:33N 40°55' W 073°37'10 9.8
2014-Jul-26 21:33N 40°60' W 073°26'9 9.5
2014-Jul-26 20:33N 41°03' W 073°14'9 9.3
2014-Jul-26 19:33N 41°07' W 073°03'9 8.8
2014-Jul-26 18:33N 41°13' W 072°54'5 4.4
2014-Jul-26 17:29N 41°18' W 072°55'0 0.0
2014-Jul-26 16:32N 41°18' W 072°55'0 0.0
2014-Jul-26 15:32N 41°18' W 072°55'0 0.0
2014-Jul-26 14:32N 41°18' W 072°55'0 0.0
2014-Jul-26 13:32N 41°18' W 072°55'0 0.0
2014-Jul-26 12:29N 41°18' W 072°55'0 0.0
2014-Jul-26 11:29N 41°18' W 072°55'0 0.0
2014-Jul-26 10:32N 41°18' W 072°55'0 0.0
2014-Jul-26 09:32N 41°18' W 072°55'0 0.0
2014-Jul-26 08:32N 41°18' W 072°55'0 0.0
2014-Jul-26 07:32N 41°18' W 072°55'0 0.0
2014-Jul-26 06:32N 41°18' W 072°55'0 0.0
2014-Jul-26 05:31N 41°18' W 072°55'0 0.0
2014-Jul-26 04:31N 41°18' W 072°55'0 0.0
2014-Jul-26 03:31N 41°18' W 072°55'3 3.4
2014-Jul-26 02:33N 41°15' W 072°55'7 6.8
2014-Jul-26 01:33N 41°09' W 073°00'8 8.0
2014-Jul-26 00:34N 41°05' W 073°09'9 8.4
2014-Jul-25 23:31N 41°02' W 073°20'9 8.8
2014-Jul-25 22:32N 40°58' W 073°30'9 8.7
2014-Jul-25 21:30N 40°54' W 073°41'9 8.0
2014-Jul-25 20:25N 40°48' W 073°49'6 6.7
2014-Jul-25 19:33N 40°46' W 073°57'5 4.9
2014-Jul-25 18:33N 40°42' W 074°00'6 5.7
2014-Jul-25 17:34N 40°37' W 074°03'6 6.3
2014-Jul-25 16:34N 40°31' W 073°59'6 6.2
2014-Jul-25 15:33N 40°27' W 073°54'8 8.1
2014-Jul-25 14:33N 40°19' W 073°55'79 3.7
2014-Jul-24 17:33N 39°46' W 075°29'8 8.3
2014-Jul-24 16:33N 39°51' W 075°20'65 1.3
2014-Jul-22 15:33N 38°48' W 074°58'11 9.2
2014-Jul-22 14:19N 38°55' W 074°46'9 9.8
2014-Jul-22 13:25N 39°01' W 074°38'910.1
2014-Jul-22 12:33N 39°08' W 074°30'1010.3
2014-Jul-22 11:33N 39°16' W 074°22'1010.3
2014-Jul-22 10:33N 39°24' W 074°14'1010.2
2014-Jul-22 09:33N 39°32' W 074°06'1010.4
2014-Jul-22 08:33N 39°42' W 074°01'1010.3
2014-Jul-22 07:33N 39°52' W 073°58'1010.4
2014-Jul-22 06:34N 40°02' W 073°58'1110.5
2014-Jul-22 05:34N 40°12' W 073°56'1010.4
2014-Jul-22 04:34N 40°23' W 073°54'9 9.2
2014-Jul-22 03:32N 40°31' W 073°60'9 9.4
2014-Jul-22 02:34N 40°40' W 074°02'4 3.3
2014-Jul-22 01:30N 40°39' W 074°07'4 4.1
2014-Jul-22 00:33N 40°38' W 074°12'0 0.0
2014-Jul-21 23:33N 40°38' W 074°12'0 0.0
2014-Jul-21 22:34N 40°38' W 074°12'0 0.0
2014-Jul-21 21:34N 40°38' W 074°12'4 4.4
2014-Jul-21 20:34N 40°39' W 074°06'2 9.2
2014-Jul-21 20:18N 40°40' W 074°03'4 5.0
2014-Jul-21 19:34N 40°42' W 073°60'  

Dump ship's entire track history